Thursday, November 23, 2017, 4:34 AM EST
Back to Local

KFME, Fort Meade / Tipton

Location: Laurel, MD, United States Lat: 39.083
Local Time: 4:34 AM EST ( 9:34 GMT) Lon: -76.767
Time Zone: US/Eastern Elev: 150 ft

Show me the last for .
Show Decoded

2017-11-23 04:06 METAR KFME 230906Z AUTO 00000KT 10SM CLR M03/M05 A3019 RMK AO1 =
2017-11-23 03:45 METAR KFME 230845Z AUTO 00000KT 10SM CLR M03/M04 A3019 RMK AO1 =
2017-11-23 03:24 METAR KFME 230824Z AUTO 00000KT 10SM CLR M03/M05 A3019 RMK AO1 =
2017-11-23 03:06 METAR KFME 230806Z AUTO 00000KT 10SM CLR M02/M04 A3020 RMK AO1 =
2017-11-23 02:45 METAR KFME 230745Z AUTO 00000KT 10SM CLR M02/M04 A3020 RMK AO1 =
2017-11-23 02:24 METAR KFME 230724Z AUTO 00000KT 10SM CLR M02/M04 A3019 RMK AO1 =
2017-11-23 02:06 METAR KFME 230706Z AUTO 00000KT 10SM CLR M02/M04 A3019 RMK AO1 =
2017-11-23 01:45 METAR KFME 230645Z AUTO 00000KT 10SM CLR M01/M03 A3019 RMK AO1 =
2017-11-23 01:24 METAR KFME 230624Z AUTO 00000KT 10SM CLR M01/M03 A3019 RMK AO1 =
2017-11-23 01:06 METAR KFME 230606Z AUTO 00000KT 10SM CLR M01/M03 A3018 RMK AO1 =
2017-11-23 00:45 METAR KFME 230545Z AUTO 00000KT 10SM CLR 00/M03 A3019 RMK AO1 =
2017-11-23 00:24 METAR KFME 230524Z AUTO 33005KT 10SM CLR 00/M04 A3019 RMK AO1 =
2017-11-23 00:06 METAR KFME 230506Z AUTO 00000KT 10SM CLR M01/M04 A3020 RMK AO1 =
2017-11-22 23:45 METAR KFME 230445Z AUTO 00000KT 10SM CLR M01/M03 A3021 RMK AO1 =
2017-11-22 23:24 METAR KFME 230424Z AUTO 00000KT 10SM CLR 00/M03 A3021 RMK AO1 =
2017-11-22 23:06 METAR KFME 230406Z AUTO 32003KT 10SM CLR 01/M04 A3021 RMK AO1 =
2017-11-22 22:45 METAR KFME 230345Z AUTO 00000KT 10SM CLR 01/M04 A3021 RMK AO1 =
2017-11-22 22:24 METAR KFME 230324Z AUTO 31004KT 10SM CLR 01/M03 A3020 RMK AO1 =
2017-11-22 22:06 METAR KFME 230306Z AUTO 32004KT 10SM CLR 01/M03 A3021 RMK AO1 =
2017-11-22 21:45 METAR KFME 230245Z AUTO 31004KT 10SM CLR 02/M03 A3020 RMK AO1 =
2017-11-22 21:24 METAR KFME 230224Z AUTO 31003KT 10SM CLR 02/M03 A3020 RMK AO1 =
2017-11-22 21:06 METAR KFME 230206Z AUTO 30007KT 10SM CLR 02/M03 A3019 RMK AO1 =
2017-11-22 20:45 METAR KFME 230145Z AUTO 30006KT 10SM SCT044 02/M03 A3019 RMK AO1 =
2017-11-22 20:24 METAR KFME 230124Z AUTO 31007KT 10SM CLR 03/M03 A3018 RMK AO1 =
2017-11-22 20:06 METAR KFME 230106Z AUTO 30004KT 10SM CLR 03/M03 A3017 RMK AO1 =
2017-11-22 19:45 METAR KFME 230045Z AUTO 31006KT 10SM CLR 03/M03 A3017 RMK AO1 =
2017-11-22 19:24 METAR KFME 230024Z AUTO 32005KT 10SM CLR 04/M03 A3017 RMK AO1 =
2017-11-22 19:06 METAR KFME 230006Z AUTO 32007KT 290V350 10SM CLR 04/M03 A3016 RMK AO1 =
2017-11-22 18:45 METAR KFME 222345Z AUTO 30006G14KT 10SM CLR 05/M03 A3015 RMK AO1 =
2017-11-22 18:24 METAR KFME 222324Z AUTO 31006KT 10SM SCT049 05/M03 A3014 RMK AO1 =
2017-11-22 18:06 METAR KFME 222306Z AUTO 33007G15KT 10SM BKN049 05/M02 A3014 RMK AO1 =
2017-11-22 17:45 METAR KFME 222245Z AUTO 32011G17KT 10SM BKN049 06/M02 A3013 RMK AO1 =
2017-11-22 17:24 METAR KFME 222224Z AUTO 31010KT 10SM SCT049 06/M02 A3013 RMK AO1 =
2017-11-22 17:06 METAR KFME 222206Z AUTO 31010G18KT 10SM SCT050 06/M02 A3012 RMK AO1 =
2017-11-22 16:45 METAR KFME 222145Z AUTO 31010G16KT 10SM BKN050 07/M01 A3011 RMK AO1 =
2017-11-22 16:24 METAR KFME 222124Z AUTO 30011G17KT 10SM SCT050 07/M01 A3009 RMK AO1 =
2017-11-22 16:06 METAR KFME 222106Z AUTO 30010G15KT 10SM SCT050 08/M02 A3009 RMK AO1 =
2017-11-22 15:45 METAR KFME 222045Z AUTO 30013G19KT 10SM CLR 08/M02 A3008 RMK AO1 =
2017-11-22 15:24 METAR KFME 222024Z AUTO 32011G16KT 10SM SCT050 08/M01 A3007 RMK AO1 =
2017-11-22 15:06 METAR KFME 222006Z AUTO 32011G20KT 10SM SCT050 09/M01 A3007 RMK AO1 =
2017-11-22 14:45 METAR KFME 221945Z AUTO 31015G21KT 10SM SCT050 10/M01 A3005 RMK AO1 =
2017-11-22 14:24 METAR KFME 221924Z AUTO 31011G21KT 280V340 10SM CLR 10/M01 A3004 RMK AO1 =
2017-11-22 14:06 METAR KFME 221906Z AUTO 30017G21KT 10SM SCT050 11/M01 A3004 RMK AO1 =
2017-11-22 13:45 METAR KFME 221845Z AUTO 32011G22KT 10SM SCT050 11/M01 A3004 RMK AO1 =
2017-11-22 13:24 METAR KFME 221824Z AUTO 32011G20KT 290V000 10SM CLR 11/00 A3003 RMK AO1 =
2017-11-22 13:06 METAR KFME 221806Z AUTO 28015G26KT 10SM CLR 11/00 A3002 RMK AO1 =
2017-11-22 12:45 METAR KFME 221745Z AUTO 30014G24KT 10SM SCT050 12/00 A3003 RMK AO1 =
2017-11-22 12:24 METAR KFME 221724Z AUTO 31018G24KT 10SM SCT050 12/01 A3002 RMK AO1 =
2017-11-22 12:06 METAR KFME 221706Z AUTO 32014G24KT 300V000 10SM SCT050 12/00 A3001 RMK AO1 =
2017-11-22 11:45 METAR KFME 221645Z AUTO 29013G21KT 270V330 10SM SCT050 13/01 A3001 RMK AO1 =
2017-11-22 11:24 METAR KFME 221624Z AUTO 33013G20KT 290V000 10SM SCT050 13/02 A3001 RMK AO1 =
2017-11-22 11:06 METAR KFME 221606Z AUTO 29012G22KT 10SM CLR 13/01 A3000 RMK AO1 =
2017-11-22 10:45 METAR KFME 221545Z AUTO 32013G24KT 10SM CLR 13/02 A2999 RMK AO1 =
2017-11-22 10:24 METAR KFME 221524Z AUTO 32010G19KT 10SM CLR 13/02 A2999 RMK AO1 =
2017-11-22 10:06 METAR KFME 221506Z AUTO 30015G21KT 10SM CLR 13/02 A2999 RMK AO1 =
2017-11-22 09:45 METAR KFME 221445Z AUTO 31012G19KT 280V350 10SM CLR 12/03 A2998 RMK AO1 =
2017-11-22 09:24 METAR KFME 221424Z AUTO 31008G19KT 280V350 10SM CLR 11/04 A2998 RMK AO1 =
2017-11-22 09:06 METAR KFME 221406Z AUTO 29007KT 10SM SCT100 10/06 A2998 RMK AO1 =
2017-11-22 08:45 METAR KFME 221345Z AUTO 29004KT 10SM BKN100 09/07 A2998 RMK AO1 =
2017-11-22 08:24 METAR KFME 221324Z AUTO 29003KT 10SM BKN090 BKN120 08/07 A2998 RMK AO1 =
2017-11-22 08:06 METAR KFME 221306Z AUTO 29003KT 5SM SCT090 OVC110 07/07 A2997 RMK AO1 =
2017-11-22 07:45 METAR KFME 221245Z AUTO 00000KT 5SM OVC100 07/07 A2996 RMK AO1 =
2017-11-22 07:24 METAR KFME 221224Z AUTO 00000KT 5SM OVC100 07/07 A2996 RMK AO1 =
2017-11-22 07:06 METAR KFME 221206Z AUTO 00000KT 5SM BKN100 07/07 A2995 RMK AO1 =
2017-11-22 06:45 METAR KFME 221145Z AUTO 00000KT 5SM CLR 07/07 A2995 RMK AO1 =
2017-11-22 06:24 METAR KFME 221124Z AUTO 00000KT 7SM BKN120 08/07 A2994 RMK AO1 =
2017-11-22 06:06 METAR KFME 221106Z AUTO 00000KT 7SM OVC120 08/07 A2995 RMK AO1 =
2017-11-22 05:45 METAR KFME 221045Z AUTO 19003KT 7SM SCT035 BKN070 OVC110 08/07 A2994 RMK AO1 =
2017-11-22 05:24 METAR KFME 221024Z AUTO 24003KT 10SM SCT055 BKN070 OVC090 07/07 A2994 RMK AO1 =
2017-11-22 05:06 METAR KFME 221006Z AUTO 00000KT 10SM OVC080 07/07 A2994 RMK AO1 =
2017-11-22 04:45 METAR KFME 220945Z AUTO 00000KT 10SM OVC070 07/06 A2993 RMK AO1 =

Support USWX by starting your Amazon purchase here.